Time;durP1;ratioP1;P1;durP2;ratioP2;P2;SDS_P1;SDS_P2;PMS_P1;PMS_P2;Temp;Humidity;BMP_temperature;BMP_pressure;BME280_temperature;BME280_humidity;BME280_pressure;Samples;Min_cycle;Max_cycle;Signal;HPM_P1;HPM_P2
2022/04/29 06:16:46;;;;;;;22.07;11.10;;;;;;;15.05;100.00;100549.97;1820277;79;22936;-58
2022/04/29 06:19:32;;;;;;;24.98;11.15;;;;;;;15.28;100.00;100550.66;1779283;80;21303;-58
2022/04/29 06:22:05;;;;;;;21.33;10.35;;;;;;;15.54;100.00;100549.98;1760275;81;21505;-58
2022/04/29 06:24:33;;;;;;;20.08;10.18;;;;;;;15.74;100.00;100549.01;1764464;81;21078;-58
2022/04/29 06:27:02;;;;;;;20.52;9.85;;;;;;;16.27;100.00;100552.11;1764569;81;21532;-59
2022/04/29 06:29:30;;;;;;;18.62;9.75;;;;;;;16.55;99.95;100555.95;1764629;81;21062;-58
2022/04/29 06:31:59;;;;;;;17.32;8.75;;;;;;;16.75;99.34;100559.08;1764721;81;21034;-58
2022/04/29 06:34:43;;;;;;;14.70;7.62;;;;;;;17.12;97.26;100553.64;1760519;81;21510;-58
2022/04/29 06:37:10;;;;;;;14.25;6.60;;;;;;;17.22;84.34;100552.13;1764525;81;21066;-59
2022/04/29 06:39:40;;;;;;;15.98;6.90;;;;;;;17.36;82.10;100557.16;1764735;81;21600;-58
2022/04/29 06:42:25;;;;;;;12.68;6.65;;;;;;;17.81;78.16;100556.27;1764595;81;21019;-59
2022/04/29 06:44:55;;;;;;;16.87;7.47;;;;;;;18.31;70.80;100554.03;1734762;81;21063;-58
2022/04/29 06:47:28;;;;;;;18.73;6.83;;;;;;;18.25;61.06;100552.46;1709813;81;21020;-57
2022/04/29 06:49:58;;;;;;;23.40;9.10;;;;;;;18.17;58.61;100550.98;1745759;81;21135;-57
2022/04/29 06:52:36;;;;;;;10.00;4.53;;;;;;;18.38;53.95;100549.50;1759279;81;21050;-57
2022/04/29 06:55:09;;;;;;;7.70;3.30;;;;;;;18.56;53.72;100549.19;1764168;81;21545;-57
2022/04/29 06:57:36;;;;;;;9.40;4.08;;;;;;;18.90;51.27;100555.12;1764573;81;21074;-57
2022/04/29 07:00:06;;;;;;;6.10;3.20;;;;;;;18.79;46.88;100556.44;1764483;81;21077;-57
2022/04/29 07:02:33;;;;;;;6.70;3.00;;;;;;;18.71;47.33;100551.63;1764520;81;21034;-57
2022/04/29 07:05:02;;;;;;;8.00;3.30;;;;;;;18.47;45.70;100555.92;1764396;81;21121;-56
2022/04/29 07:07:30;;;;;;;7.20;3.42;;;;;;;18.35;47.17;100554.23;1735369;81;21023;-57
2022/04/29 07:10:00;;;;;;;9.05;3.72;;;;;;;18.28;47.94;100562.09;1763019;81;21597;-57
2022/04/29 07:12:47;;;;;;;9.00;4.22;;;;;;;18.05;45.21;100557.52;1764800;81;21046;-56
2022/04/29 07:15:14;;;;;;;12.82;4.60;;;;;;;17.91;48.62;100564.36;1728597;82;21483;-56
2022/04/29 07:17:43;;;;;;;10.05;4.12;;;;;;;18.01;49.31;100563.36;1740923;82;21039;-57
2022/04/29 07:20:13;;;;;;;9.83;3.15;;;;;;;18.22;49.38;100558.58;1740783;82;21028;-57
2022/04/29 07:22:40;;;;;;;6.62;2.80;;;;;;;18.71;45.32;100551.63;1741063;82;21148;-57
2022/04/29 07:25:11;;;;;;;8.75;3.12;;;;;;;19.06;42.69;100554.25;1740653;82;21080;-58
2022/04/29 07:27:40;;;;;;;5.22;2.80;;;;;;;19.34;40.60;100557.22;1740525;82;20976;-58
2022/04/29 07:30:10;;;;;;;4.42;2.72;;;;;;;19.39;38.34;100548.25;1740312;82;21106;-58
2022/04/29 07:32:45;;;;;;;5.45;2.20;;;;;;;19.65;38.93;100547.14;1740168;82;21032;-58
2022/04/29 07:43:53;;;;;;;6.05;2.25;;;;;;;20.74;34.10;100549.86;1740331;82;21076;-59
2022/04/29 07:46:21;;;;;;;6.12;2.47;;;;;;;20.57;34.86;100553.94;1713966;82;21529;-59
2022/04/29 07:48:53;;;;;;;6.95;2.42;;;;;;;20.68;36.10;100547.00;1736167;82;21075;-56
2022/04/29 07:51:19;;;;;;;4.80;2.98;;;;;;;21.26;37.29;100543.92;1740399;82;21067;-56
2022/04/29 07:53:47;;;;;;;4.55;2.15;;;;;;;21.72;34.60;100540.53;1740266;82;21545;-56
2022/04/29 07:56:14;;;;;;;5.45;2.70;;;;;;;21.92;33.24;100544.64;1740129;82;21055;-56
2022/04/29 07:58:43;;;;;;;6.35;2.50;;;;;;;22.06;32.28;100543.32;1740317;82;21068;-58
2022/04/29 08:01:10;;;;;;;7.12;3.08;;;;;;;21.85;31.88;100539.56;1740232;82;21055;-57
2022/04/29 08:03:39;;;;;;;8.00;2.98;;;;;;;21.76;31.38;100545.66;1740425;82;21028;-57
2022/04/29 08:06:07;;;;;;;7.87;3.00;;;;;;;21.73;32.78;100540.78;1740330;82;21044;-57
2022/04/29 08:08:34;;;;;;;5.25;2.80;;;;;;;22.33;32.21;100539.33;1740402;82;21531;-56
2022/04/29 08:11:02;;;;;;;6.35;2.60;;;;;;;22.85;31.29;100538.58;1740270;82;21059;-57
2022/04/29 08:13:30;;;;;;;7.12;2.70;;;;;;;22.92;31.25;100539.47;1740435;82;20987;-57
2022/04/29 08:16:12;;;;;;;5.30;2.40;;;;;;;23.06;30.89;100531.72;1751083;81;21020;-57
2022/04/29 08:18:48;;;;;;;9.25;4.78;;;;;;;23.08;29.97;100533.56;1763511;81;21115;-57
2022/04/29 08:21:17;;;;;;;8.10;3.87;;;;;;;23.12;30.37;100538.13;1715537;83;21125;-57
2022/04/29 08:23:43;;;;;;;4.78;2.42;;;;;;;23.25;30.84;100523.16;1715599;83;21548;-57
2022/04/29 08:26:12;;;;;;;5.55;2.65;;;;;;;22.95;30.10;100529.08;1715553;82;21053;-57
2022/04/29 08:28:42;;;;;;;4.85;2.12;;;;;;;22.87;29.66;100525.77;1699564;84;21166;-57
2022/04/29 08:31:09;;;;;;;3.40;1.80;;;;;;;22.33;29.06;100523.51;1715846;83;21587;-58
2022/04/29 08:33:38;;;;;;;4.30;1.60;;;;;;;21.44;29.80;100510.95;1714295;83;21037;-57
2022/04/29 08:36:07;;;;;;;4.83;1.95;;;;;;;20.62;30.55;100515.05;1715118;83;21053;-57
2022/04/29 08:38:33;;;;;;;3.50;1.60;;;;;;;19.42;32.05;100520.61;1715545;83;21045;-57
2022/04/29 08:41:02;;;;;;;3.08;1.62;;;;;;;18.65;34.31;100519.77;1715696;82;21081;-56
2022/04/29 08:43:32;;;;;;;4.53;1.90;;;;;;;18.28;35.89;100520.16;1715608;84;21006;-57
2022/04/29 08:46:01;;;;;;;4.90;1.90;;;;;;;18.02;37.45;100517.62;1715640;83;21100;-58
2022/04/29 08:48:36;;;;;;;6.33;1.80;;;;;;;17.61;38.24;100509.20;1713625;84;21073;-58
2022/04/29 08:51:03;;;;;;;6.87;1.52;;;;;;;17.20;42.02;100499.34;1715671;84;21117;-58
2022/04/29 08:53:34;;;;;;;2.27;1.37;;;;;;;17.01;44.96;100517.75;1715606;82;21682;-58
2022/04/29 08:58:46;;;;;;;2.12;1.20;;;;;;;16.41;49.29;100526.97;1715670;82;21088;-57
2022/04/29 09:01:16;;;;;;;5.60;1.50;;;;;;;15.98;51.73;100512.83;1715754;84;21076;-57
2022/04/29 09:03:44;;;;;;;3.92;1.57;;;;;;;15.66;54.33;100520.24;1715730;83;21033;-57
2022/04/29 09:06:12;;;;;;;2.45;1.02;;;;;;;15.58;59.29;100516.76;1715166;83;21045;-57
2022/04/29 09:08:40;;;;;;;3.20;1.22;;;;;;;15.93;62.35;100510.98;1715540;84;21042;-57
